Time,TemperatureF,DewpointF,PressureIn,WindDirection,WindDirectionDegrees,WindSpeedMPH,WindSpeedGustMPH,Humidity,HourlyPrecipIn,Conditions,Clouds,dailyrainin,SoftwareType,DateUTC
2013-02-26 00:01:00,38.0,32.0,30.27,SE,130,0.0,3.0,78,0.00,,,0.13,,2013-02-26 08:01:00,
2013-02-26 00:11:00,37.0,31.0,30.28,SSE,157,0.0,3.0,79,0.00,,,0.13,,2013-02-26 08:11:00,
2013-02-26 00:21:00,37.0,31.0,30.28,SSE,157,0.0,3.0,79,0.00,,,0.13,,2013-02-26 08:21:00,
2013-02-26 00:31:00,37.0,31.0,30.28,SSE,150,2.0,4.0,80,0.00,,,0.13,,2013-02-26 08:31:00,
2013-02-26 00:41:00,37.0,31.0,30.28,SSE,150,2.0,4.0,80,0.00,,,0.13,,2013-02-26 08:41:00,
2013-02-26 00:52:00,37.0,31.0,30.28,WSW,248,0.0,2.0,80,0.00,,,0.13,,2013-02-26 08:52:00,
2013-02-26 01:01:00,37.0,31.0,30.28,WSW,248,0.0,1.0,80,0.00,,,0.13,,2013-02-26 09:01:00,
2013-02-26 01:11:00,37.0,31.0,30.28,WSW,248,0.0,1.0,80,0.00,,,0.13,,2013-02-26 09:11:00,
2013-02-26 01:21:00,36.0,31.0,30.28,SSE,147,1.0,5.0,81,0.00,,,0.12,,2013-02-26 09:21:00,
2013-02-26 01:31:00,36.0,31.0,30.28,South,182,1.0,5.0,81,0.00,,,0.12,,2013-02-26 09:31:00,
2013-02-26 01:42:00,36.0,31.0,30.28,South,182,1.0,5.0,81,0.00,,,0.12,,2013-02-26 09:42:00,
2013-02-26 01:52:00,36.0,31.0,30.28,South,170,0.0,1.0,81,0.00,,,0.12,,2013-02-26 09:52:00,
2013-02-26 02:01:00,36.0,31.0,30.28,South,169,0.0,1.0,81,0.00,,,0.12,,2013-02-26 10:01:00,
2013-02-26 02:11:00,36.0,31.0,30.28,South,169,0.0,1.0,81,0.00,,,0.12,,2013-02-26 10:11:00,
2013-02-26 02:21:00,35.0,30.0,30.28,South,178,0.0,1.0,81,0.00,,,0.09,,2013-02-26 10:21:00,
2013-02-26 02:31:00,35.0,30.0,30.29,South,173,0.0,1.0,82,0.00,,,0.09,,2013-02-26 10:31:00,
2013-02-26 02:41:00,35.0,30.0,30.29,South,173,0.0,1.0,82,0.00,,,0.09,,2013-02-26 10:41:00,
2013-02-26 02:52:00,35.0,30.0,30.29,South,173,0.0,0.0,82,0.00,,,0.09,,2013-02-26 10:52:00,
2013-02-26 03:01:00,35.0,30.0,30.29,South,173,0.0,0.0,83,0.00,,,0.09,,2013-02-26 11:01:00,
2013-02-26 03:11:00,35.0,30.0,30.29,South,173,0.0,0.0,83,0.00,,,0.09,,2013-02-26 11:11:00,
2013-02-26 03:21:00,35.0,31.0,30.29,South,173,0.0,1.0,84,0.00,,,0.04,,2013-02-26 11:21:00,
2013-02-26 03:31:00,35.0,31.0,30.29,South,173,0.0,0.0,84,0.00,,,0.04,,2013-02-26 11:31:00,
2013-02-26 03:41:00,35.0,31.0,30.29,South,173,0.0,0.0,84,0.00,,,0.04,,2013-02-26 11:41:00,
2013-02-26 03:52:00,35.0,31.0,30.29,South,173,0.0,2.0,84,0.00,,,0.04,,2013-02-26 11:52:00,
2013-02-26 04:01:00,35.0,31.0,30.29,South,173,0.0,1.0,84,0.00,,,0.04,,2013-02-26 12:01:00,
2013-02-26 04:11:00,35.0,31.0,30.29,South,173,0.0,1.0,84,0.00,,,0.04,,2013-02-26 12:11:00,
2013-02-26 04:22:00,35.0,31.0,30.29,South,171,0.0,1.0,85,0.00,,,0.03,,2013-02-26 12:22:00,
2013-02-26 04:32:00,35.0,31.0,30.29,South,171,0.0,1.0,85,0.00,,,0.03,,2013-02-26 12:32:00,
2013-02-26 04:41:00,35.0,31.0,30.29,South,171,0.0,1.0,85,0.00,,,0.03,,2013-02-26 12:41:00,
2013-02-26 04:52:00,35.0,31.0,30.29,SW,220,0.0,2.0,86,0.00,,,0.03,,2013-02-26 12:52:00,
2013-02-26 05:01:00,36.0,32.0,30.29,SSW,208,0.0,2.0,86,0.00,,,0.03,,2013-02-26 13:01:00,
2013-02-26 05:11:00,36.0,32.0,30.29,SSW,208,0.0,2.0,86,0.00,,,0.03,,2013-02-26 13:11:00,
2013-02-26 05:21:00,36.0,32.0,30.29,SSW,194,0.0,3.0,84,0.00,,,0.03,,2013-02-26 13:21:00,
2013-02-26 05:31:00,36.0,31.0,30.30,SSW,211,2.0,5.0,83,0.00,,,0.03,,2013-02-26 13:31:00,
2013-02-26 05:42:00,36.0,31.0,30.30,SSW,211,2.0,5.0,83,0.00,,,0.03,,2013-02-26 13:42:00,
2013-02-26 05:52:00,37.0,32.0,30.30,SSW,211,0.0,0.0,82,0.00,,,0.03,,2013-02-26 13:52:00,
2013-02-26 06:01:00,37.0,32.0,30.30,SSW,211,0.0,0.0,81,0.00,,,0.03,,2013-02-26 14:01:00,
2013-02-26 06:11:00,37.0,32.0,30.30,SSW,211,0.0,0.0,81,0.00,,,0.03,,2013-02-26 14:11:00,
2013-02-26 06:21:00,36.0,30.0,30.30,SSW,211,0.0,0.0,79,0.00,,,0.02,,2013-02-26 14:21:00,
2013-02-26 06:31:00,36.0,30.0,30.30,SSW,211,0.0,0.0,79,0.00,,,0.02,,2013-02-26 14:31:00,
2013-02-26 06:41:00,36.0,30.0,30.30,SSW,211,0.0,0.0,79,0.00,,,0.02,,2013-02-26 14:41:00,
2013-02-26 06:52:00,35.0,29.0,30.31,SSW,211,0.0,0.0,80,0.00,,,0.02,,2013-02-26 14:52:00,
2013-02-26 07:01:00,35.0,30.0,30.31,SSW,211,0.0,0.0,81,0.00,,,0.02,,2013-02-26 15:01:00,
2013-02-26 07:11:00,35.0,30.0,30.31,SSW,211,0.0,0.0,81,0.00,,,0.02,,2013-02-26 15:11:00,
2013-02-26 07:21:00,35.0,30.0,30.31,SSW,211,0.0,0.0,82,0.00,,,0.02,,2013-02-26 15:21:00,
2013-02-26 07:31:00,34.0,29.0,30.31,SSW,211,0.0,0.0,83,0.00,,,0.02,,2013-02-26 15:31:00,
2013-02-26 07:41:00,34.0,29.0,30.31,SSW,211,0.0,0.0,83,0.00,,,0.02,,2013-02-26 15:41:00,
2013-02-26 07:52:00,35.0,30.0,30.31,SSW,211,0.0,0.0,83,0.00,,,0.02,,2013-02-26 15:52:00,
2013-02-26 08:01:00,35.0,31.0,30.31,SSW,211,0.0,0.0,84,0.00,,,0.02,,2013-02-26 16:01:00,
2013-02-26 08:11:00,35.0,31.0,30.31,SSW,211,0.0,0.0,84,0.00,,,0.02,,2013-02-26 16:11:00,
2013-02-26 08:22:00,35.0,31.0,30.31,SSW,211,0.0,0.0,85,0.00,,,0.01,,2013-02-26 16:22:00,
2013-02-26 08:31:00,35.0,31.0,30.31,SSW,211,0.0,0.0,85,0.00,,,0.01,,2013-02-26 16:31:00,
2013-02-26 08:41:00,35.0,31.0,30.31,SSW,211,0.0,0.0,85,0.00,,,0.01,,2013-02-26 16:41:00,
2013-02-26 08:52:00,36.0,32.0,30.31,SSW,211,0.0,2.0,86,0.00,,,0.01,,2013-02-26 16:52:00,
2013-02-26 09:01:00,37.0,32.0,30.31,SSW,211,0.0,1.0,82,0.00,,,0.01,,2013-02-26 17:01:00,
2013-02-26 09:11:00,40.0,30.0,30.31,South,185,0.0,5.0,68,0.00,,,0.01,,2013-02-26 17:11:00,
2013-02-26 09:21:00,40.0,30.0,30.31,South,185,0.0,5.0,68,0.00,,,0.01,,2013-02-26 17:21:00,
2013-02-26 09:32:00,41.0,31.0,30.31,South,180,0.0,1.0,66,0.00,,,0.01,,2013-02-26 17:32:00,
2013-02-26 09:41:00,41.0,31.0,30.31,South,180,0.0,1.0,66,0.00,,,0.01,,2013-02-26 17:41:00,
2013-02-26 09:52:00,42.0,31.0,30.31,South,178,0.0,3.0,65,0.00,,,0.01,,2013-02-26 17:52:00,
2013-02-26 10:01:00,43.0,31.0,30.30,South,186,1.0,7.0,62,0.00,,,0.01,,2013-02-26 18:01:00,
2013-02-26 10:12:00,43.0,31.0,30.30,South,186,1.0,7.0,62,0.00,,,0.01,,2013-02-26 18:12:00,
2013-02-26 10:21:00,44.0,31.0,30.30,ESE,109,1.0,8.0,60,0.00,,,0.00,,2013-02-26 18:21:00,
2013-02-26 10:31:00,43.0,30.0,30.29,SSW,197,1.0,7.0,59,0.00,,,0.00,,2013-02-26 18:31:00,
2013-02-26 10:42:00,43.0,30.0,30.29,SSW,197,1.0,7.0,59,0.00,,,0.00,,2013-02-26 18:42:00,
2013-02-26 10:52:00,44.0,29.0,30.29,South,186,3.0,6.0,55,0.00,,,0.00,,2013-02-26 18:52:00,
2013-02-26 11:01:00,44.0,31.0,30.28,ENE,76,0.0,6.0,61,0.00,,,0.00,,2013-02-26 19:01:00,
2013-02-26 11:11:00,44.0,31.0,30.28,ENE,76,0.0,6.0,61,0.00,,,0.00,,2013-02-26 19:11:00,
2013-02-26 11:22:00,45.0,31.0,30.28,ESE,113,0.0,4.0,58,0.00,,,0.00,,2013-02-26 19:22:00,
2013-02-26 11:31:00,45.0,31.0,30.27,East,96,0.0,3.0,57,0.00,,,0.00,,2013-02-26 19:31:00,
2013-02-26 11:41:00,45.0,31.0,30.27,East,96,0.0,3.0,57,0.00,,,0.00,,2013-02-26 19:41:00,
2013-02-26 11:52:00,45.0,31.0,30.27,South,175,2.0,7.0,57,0.00,,,0.00,,2013-02-26 19:52:00,
2013-02-26 12:01:00,45.0,30.0,30.27,South,186,1.0,4.0,55,0.00,,,0.00,,2013-02-26 20:01:00,
2013-02-26 12:11:00,45.0,30.0,30.27,South,186,1.0,4.0,55,0.00,,,0.00,,2013-02-26 20:11:00,
2013-02-26 12:21:00,44.0,29.0,30.27,SW,229,2.0,4.0,55,0.00,,,0.00,,2013-02-26 20:21:00,
2013-02-26 12:31:00,44.0,29.0,30.27,SSW,196,2.0,4.0,56,0.00,,,0.00,,2013-02-26 20:31:00,
2013-02-26 12:41:00,44.0,29.0,30.27,SSW,196,2.0,4.0,56,0.00,,,0.00,,2013-02-26 20:41:00,
2013-02-26 12:52:00,44.0,30.0,30.27,SSE,160,2.0,6.0,57,0.00,,,0.00,,2013-02-26 20:52:00,
2013-02-26 13:01:00,44.0,30.0,30.26,East,90,0.0,5.0,57,0.00,,,0.00,,2013-02-26 21:01:00,
2013-02-26 13:11:00,44.0,30.0,30.26,East,90,0.0,5.0,57,0.00,,,0.00,,2013-02-26 21:11:00,
2013-02-26 13:21:00,44.0,30.0,30.25,SSW,210,1.0,7.0,57,0.00,,,0.00,,2013-02-26 21:21:00,
2013-02-26 13:31:00,45.0,31.0,30.25,South,185,1.0,5.0,57,0.00,,,0.00,,2013-02-26 21:31:00,
2013-02-26 13:41:00,45.0,31.0,30.25,South,185,1.0,5.0,57,0.00,,,0.00,,2013-02-26 21:41:00,
2013-02-26 13:51:00,45.0,30.0,30.24,East,98,1.0,6.0,56,0.00,,,0.00,,2013-02-26 21:51:00,
2013-02-26 14:01:00,45.0,30.0,30.23,SW,234,1.0,6.0,55,0.00,,,0.00,,2013-02-26 22:01:00,
2013-02-26 14:11:00,45.0,30.0,30.22,South,180,3.0,6.0,55,0.00,,,0.00,,2013-02-26 22:11:00,
2013-02-26 14:21:00,45.0,30.0,30.22,South,180,3.0,6.0,55,0.00,,,0.00,,2013-02-26 22:21:00,
2013-02-26 14:31:00,45.0,30.0,30.22,SE,134,0.0,9.0,56,0.00,,,0.00,,2013-02-26 22:31:00,
2013-02-26 14:41:00,45.0,30.0,30.22,SE,134,0.0,9.0,56,0.00,,,0.00,,2013-02-26 22:41:00,
2013-02-26 14:51:00,46.0,30.0,30.22,WNW,285,1.0,9.0,53,0.00,,,0.00,,2013-02-26 22:51:00,
2013-02-26 15:01:00,47.0,29.0,30.21,South,178,1.0,4.0,50,0.00,,,0.00,,2013-02-26 23:01:00,
2013-02-26 15:11:00,47.0,29.0,30.21,South,178,1.0,4.0,50,0.00,,,0.00,,2013-02-26 23:11:00,
2013-02-26 15:21:00,46.0,29.0,30.20,West,270,1.0,7.0,51,0.00,,,0.00,,2013-02-26 23:21:00,
2013-02-26 15:31:00,46.0,29.0,30.20,SSE,165,1.0,6.0,52,0.00,,,0.00,,2013-02-26 23:31:00,
2013-02-26 15:41:00,46.0,29.0,30.20,SSE,165,1.0,6.0,52,0.00,,,0.00,,2013-02-26 23:41:00,
2013-02-26 15:52:00,46.0,29.0,30.21,SSW,194,1.0,9.0,51,0.00,,,0.00,,2013-02-26 23:52:00,
2013-02-26 16:01:00,46.0,30.0,30.20,West,259,1.0,6.0,54,0.00,,,0.00,,2013-02-27 00:01:00,
2013-02-26 16:11:00,46.0,30.0,30.20,West,259,1.0,6.0,54,0.00,,,0.00,,2013-02-27 00:11:00,
2013-02-26 16:21:00,45.0,30.0,30.21,ESE,109,1.0,6.0,56,0.00,,,0.00,,2013-02-27 00:21:00,
2013-02-26 16:31:00,45.0,31.0,30.20,SSW,200,1.0,5.0,58,0.00,,,0.00,,2013-02-27 00:31:00,
2013-02-26 16:41:00,45.0,31.0,30.20,SSW,200,1.0,5.0,58,0.00,,,0.00,,2013-02-27 00:41:00,
2013-02-26 16:52:00,45.0,31.0,30.20,SSE,153,1.0,5.0,58,0.00,,,0.00,,2013-02-27 00:52:00,
2013-02-26 17:01:00,45.0,32.0,30.20,West,269,0.0,3.0,59,0.00,,,0.00,,2013-02-27 01:01:00,
2013-02-26 17:11:00,45.0,32.0,30.20,West,269,0.0,3.0,59,0.00,,,0.00,,2013-02-27 01:11:00,
2013-02-26 17:21:00,45.0,32.0,30.20,NW,309,0.0,2.0,59,0.00,,,0.00,,2013-02-27 01:21:00,
2013-02-26 17:31:00,44.0,31.0,30.20,SW,232,1.0,2.0,60,0.00,,,0.00,,2013-02-27 01:31:00,
2013-02-26 17:41:00,44.0,31.0,30.20,SW,232,1.0,2.0,60,0.00,,,0.00,,2013-02-27 01:41:00,
2013-02-26 17:52:00,44.0,31.0,30.20,SSE,148,1.0,2.0,61,0.00,,,0.00,,2013-02-27 01:52:00,
2013-02-26 18:01:00,44.0,31.0,30.19,SSE,148,0.0,1.0,61,0.00,,,0.00,,2013-02-27 02:01:00,
2013-02-26 18:12:00,44.0,31.0,30.19,SSE,148,0.0,1.0,61,0.00,,,0.00,,2013-02-27 02:12:00,
2013-02-26 18:21:00,44.0,32.0,30.19,WSW,247,0.0,0.0,62,0.00,,,0.00,,2013-02-27 02:21:00,
2013-02-26 18:31:00,43.0,31.0,30.19,WSW,247,0.0,0.0,62,0.00,,,0.00,,2013-02-27 02:31:00,
2013-02-26 18:41:00,43.0,31.0,30.19,WSW,247,0.0,0.0,62,0.00,,,0.00,,2013-02-27 02:41:00,
2013-02-26 18:52:00,43.0,32.0,30.19,WSW,247,0.0,1.0,64,0.00,,,0.00,,2013-02-27 02:52:00,
2013-02-26 19:01:00,43.0,32.0,30.18,WSW,247,0.0,1.0,65,0.00,,,0.00,,2013-02-27 03:01:00,
2013-02-26 19:11:00,43.0,32.0,30.18,WSW,247,0.0,1.0,65,0.00,,,0.00,,2013-02-27 03:11:00,
2013-02-26 19:21:00,42.0,31.0,30.18,WSW,247,0.0,0.0,66,0.00,,,0.00,,2013-02-27 03:21:00,
2013-02-26 19:31:00,42.0,32.0,30.18,WSW,247,0.0,1.0,68,0.00,,,0.00,,2013-02-27 03:31:00,
2013-02-26 19:41:00,42.0,32.0,30.18,WSW,247,0.0,1.0,68,0.00,,,0.00,,2013-02-27 03:41:00,
2013-02-26 19:52:00,42.0,33.0,30.18,WSW,247,0.0,0.0,71,0.00,,,0.00,,2013-02-27 03:52:00,
2013-02-26 20:01:00,42.0,34.0,30.18,WSW,247,0.0,0.0,72,0.00,,,0.00,,2013-02-27 04:01:00,
2013-02-26 20:11:00,42.0,34.0,30.18,WSW,247,0.0,0.0,72,0.00,,,0.00,,2013-02-27 04:11:00,
2013-02-26 20:21:00,41.0,33.0,30.17,WSW,247,0.0,1.0,74,0.00,,,0.00,,2013-02-27 04:21:00,
2013-02-26 20:31:00,41.0,33.0,30.17,WSW,247,0.0,2.0,74,0.00,,,0.00,,2013-02-27 04:31:00,
2013-02-26 20:41:00,41.0,33.0,30.17,WSW,247,0.0,2.0,74,0.00,,,0.00,,2013-02-27 04:41:00,
2013-02-26 20:52:00,41.0,33.0,30.17,SW,223,0.0,2.0,73,0.00,,,0.00,,2013-02-27 04:52:00,
2013-02-26 21:01:00,41.0,33.0,30.17,South,178,0.0,3.0,72,0.00,,,0.00,,2013-02-27 05:01:00,
2013-02-26 21:11:00,41.0,33.0,30.17,South,178,0.0,3.0,72,0.00,,,0.00,,2013-02-27 05:11:00,
2013-02-26 21:21:00,41.0,32.0,30.17,SSW,193,1.0,5.0,69,0.00,,,0.00,,2013-02-27 05:21:00,
2013-02-26 21:32:00,41.0,31.0,30.17,South,188,1.0,6.0,66,0.00,,,0.00,,2013-02-27 05:32:00,
2013-02-26 21:41:00,41.0,31.0,30.17,South,188,1.0,6.0,66,0.00,,,0.00,,2013-02-27 05:41:00,
2013-02-26 21:52:00,42.0,30.0,30.16,SSW,194,2.0,11.0,63,0.00,,,0.00,,2013-02-27 05:52:00,
2013-02-26 22:02:00,43.0,31.0,30.16,SW,234,2.0,10.0,63,0.00,,,0.00,,2013-02-27 06:02:00,
2013-02-26 22:11:00,43.0,31.0,30.16,SW,234,2.0,10.0,63,0.00,,,0.00,,2013-02-27 06:11:00,
2013-02-26 22:21:00,43.0,32.0,30.16,South,180,3.0,7.0,64,0.00,,,0.00,,2013-02-27 06:21:00,
2013-02-26 22:32:00,43.0,32.0,30.17,SW,214,0.0,7.0,65,0.00,,,0.00,,2013-02-27 06:32:00,
2013-02-26 22:41:00,43.0,32.0,30.17,SW,214,0.0,7.0,65,0.00,,,0.00,,2013-02-27 06:41:00,
2013-02-26 22:52:00,43.0,32.0,30.17,South,174,3.0,11.0,65,0.00,,,0.00,,2013-02-27 06:52:00,
2013-02-26 23:01:00,43.0,32.0,30.16,SSW,207,0.0,6.0,65,0.00,,,0.00,,2013-02-27 07:01:00,
2013-02-26 23:11:00,43.0,32.0,30.16,SSW,207,0.0,6.0,65,0.00,,,0.00,,2013-02-27 07:11:00,
2013-02-26 23:21:00,43.0,31.0,30.16,North,5,2.0,9.0,63,0.00,,,0.00,,2013-02-27 07:21:00,
2013-02-26 23:31:00,43.0,31.0,30.16,SW,234,1.0,7.0,62,0.00,,,0.00,,2013-02-27 07:31:00,
2013-02-26 23:41:00,43.0,31.0,30.16,SW,234,1.0,7.0,62,0.00,,,0.00,,2013-02-27 07:41:00,
2013-02-26 23:52:00,44.0,32.0,30.16,SSW,210,7.0,12.0,62,0.00,,,0.00,,2013-02-27 07:52:00,